Time;durP1;ratioP1;P1;durP2;ratioP2;P2;SDS_P1;SDS_P2;PMS_P1;PMS_P2;Temp;Humidity;BMP_temperature;BMP_pressure;BME280_temperature;BME280_humidity;BME280_pressure;Samples;Min_cycle;Max_cycle;Signal;HPM_P1;HPM_P2
2023/07/05 00:01:00;;;;;;;2.53;1.75;;;20.70;99.90;;;;;;5092693;28;20200;-62
2023/07/05 00:03:28;;;;;;;5.55;1.98;;;20.70;99.90;;;;;;5092706;28;20208;-62
2023/07/05 00:05:56;;;;;;;3.20;1.90;;;20.70;99.90;;;;;;5092199;28;20220;-62
2023/07/05 00:08:25;;;;;;;3.53;2.20;;;20.70;99.90;;;;;;5092443;28;20204;-61
2023/07/05 00:11:02;;;;;;;4.50;2.05;;;20.60;99.90;;;;;;5092326;28;20495;-61
2023/07/05 00:13:30;;;;;;;4.50;2.60;;;20.50;99.90;;;;;;5092591;28;20594;-61
2023/07/05 00:15:58;;;;;;;4.85;2.60;;;20.40;99.90;;;;;;5079779;28;20224;-61
2023/07/05 00:18:26;;;;;;;11.60;4.13;;;20.30;99.90;;;;;;5092488;28;20204;-62
2023/07/05 00:20:54;;;;;;;9.60;3.42;;;20.10;99.90;;;;;;5081161;28;20291;-61
2023/07/05 00:23:22;;;;;;;6.65;3.35;;;19.90;99.90;;;;;;5077166;28;20197;-62
2023/07/05 00:25:51;;;;;;;4.40;2.50;;;19.70;99.90;;;;;;5091978;28;20266;-61
2023/07/05 00:28:19;;;;;;;10.85;2.63;;;19.50;99.90;;;;;;5085352;28;20214;-62
2023/07/05 00:30:47;;;;;;;4.93;2.67;;;19.40;99.90;;;;;;5075283;28;20718;-62
2023/07/05 00:33:15;;;;;;;5.18;2.63;;;19.40;99.90;;;;;;5089590;28;20208;-62
2023/07/05 00:35:48;;;;;;;9.00;3.40;;;19.30;99.90;;;;;;5091443;28;20238;-62
2023/07/05 00:38:16;;;;;;;11.55;3.00;;;19.20;99.90;;;;;;5092195;28;20200;-62
2023/07/05 00:40:44;;;;;;;6.93;3.13;;;19.20;99.90;;;;;;5092284;28;20208;-62
2023/07/05 00:43:13;;;;;;;7.00;2.53;;;19.20;99.90;;;;;;5092134;28;20279;-61
2023/07/05 00:45:53;;;;;;;4.38;2.90;;;19.20;99.90;;;;;;5091621;28;20228;-62
2023/07/05 00:48:24;;;;;;;3.80;2.05;;;19.20;99.90;;;;;;5091832;28;20651;-62
2023/07/05 00:50:54;;;;;;;3.22;1.88;;;19.10;99.90;;;;;;5091990;28;20207;-62
2023/07/05 00:53:22;;;;;;;5.28;2.40;;;19.10;99.90;;;;;;5087655;28;20244;-62
2023/07/05 00:55:52;;;;;;;4.53;2.53;;;19.10;99.90;;;;;;5075669;28;20232;-62
2023/07/05 00:58:22;;;;;;;5.90;2.40;;;19.10;99.90;;;;;;5073661;28;20284;-62
2023/07/05 01:00:50;;;;;;;3.53;2.00;;;19.10;99.90;;;;;;5074188;28;20243;-61
2023/07/05 01:03:20;;;;;;;6.80;2.17;;;19.20;99.90;;;;;;5089479;28;20684;-62
2023/07/05 01:05:50;;;;;;;2.53;2.20;;;19.10;99.90;;;;;;5091379;28;20224;-62
2023/07/05 01:08:18;;;;;;;3.30;2.33;;;19.10;99.90;;;;;;5091902;28;20196;-62
2023/07/05 01:10:49;;;;;;;4.18;2.30;;;19.10;99.90;;;;;;5091678;28;20232;-62
2023/07/05 01:13:19;;;;;;;5.60;2.35;;;19.10;99.90;;;;;;5086194;28;20232;-62
2023/07/05 01:15:52;;;;;;;5.45;2.35;;;19.10;99.90;;;;;;5072343;28;21647;-61
2023/07/05 01:18:23;;;;;;;2.38;2.13;;;19.10;99.90;;;;;;5074946;28;20292;-62
2023/07/05 01:20:52;;;;;;;8.48;2.95;;;19.00;99.90;;;;;;5085534;28;20208;-62
2023/07/05 01:23:41;;;;;;;7.60;3.08;;;18.90;99.90;;;;;;5091491;28;20201;-62
2023/07/05 01:26:32;;;;;;;3.35;2.42;;;18.80;99.90;;;;;;5092842;22;20373;-59
2023/07/05 01:29:23;;;;;;;3.60;2.15;;;18.80;99.90;;;;;;5066196;28;20662;-59
2023/07/05 01:32:03;;;;;;;4.82;3.13;;;18.70;99.90;;;;;;5042742;28;20236;-59
2023/07/05 01:34:37;;;;;;;4.28;2.92;;;18.70;99.90;;;;;;5059877;28;20228;-59
2023/07/05 01:37:06;;;;;;;2.80;2.60;;;18.70;99.90;;;;;;5067275;28;20224;-59
2023/07/05 01:39:34;;;;;;;7.28;3.40;;;18.70;99.90;;;;;;5038187;28;20235;-59
2023/07/05 01:42:02;;;;;;;4.53;2.50;;;18.70;99.90;;;;;;5071060;28;20236;-59
2023/07/05 01:44:30;;;;;;;6.03;2.55;;;18.70;99.90;;;;;;5070839;28;20672;-59
2023/07/05 01:47:02;;;;;;;2.85;2.58;;;18.70;99.90;;;;;;5071042;28;20312;-58
2023/07/05 01:49:38;;;;;;;2.75;2.42;;;18.70;99.90;;;;;;5071642;28;20201;-59
2023/07/05 01:52:10;;;;;;;7.57;2.80;;;18.70;99.90;;;;;;5075019;28;20227;-59
2023/07/05 01:54:42;;;;;;;3.35;2.10;;;18.70;99.90;;;;;;5074468;28;20307;-59
2023/07/05 01:57:12;;;;;;;2.35;2.15;;;18.60;99.90;;;;;;5074289;28;20244;-58
2023/07/05 01:59:42;;;;;;;2.67;2.47;;;18.60;99.90;;;;;;5074488;28;20228;-58
2023/07/05 02:02:11;;;;;;;3.25;1.95;;;18.60;99.90;;;;;;5074275;28;20636;-58
2023/07/05 02:04:39;;;;;;;2.25;2.05;;;18.60;99.90;;;;;;5074682;28;20206;-59
2023/07/05 02:07:07;;;;;;;2.65;2.42;;;18.60;99.90;;;;;;5074984;28;20256;-58
2023/07/05 02:09:38;;;;;;;3.08;2.47;;;18.50;99.90;;;;;;5041798;28;20235;-59
2023/07/05 02:12:07;;;;;;;5.22;2.22;;;18.50;99.90;;;;;;5074386;28;20707;-58
2023/07/05 02:14:38;;;;;;;3.38;2.30;;;18.40;99.90;;;;;;5074185;28;20201;-58
2023/07/05 02:17:06;;;;;;;4.15;2.35;;;18.40;99.90;;;;;;5074235;28;20723;-59
2023/07/05 02:19:35;;;;;;;3.08;2.30;;;18.40;99.90;;;;;;5074464;28;20192;-59
2023/07/05 02:22:04;;;;;;;2.13;1.92;;;18.40;99.90;;;;;;5073979;28;20203;-59
2023/07/05 02:24:31;;;;;;;2.30;2.10;;;18.40;99.90;;;;;;5074395;28;20233;-59
2023/07/05 02:27:00;;;;;;;2.13;2.03;;;18.40;99.90;;;;;;5073875;28;20256;-59
2023/07/05 02:29:30;;;;;;;3.53;2.33;;;18.40;99.90;;;;;;5074224;28;20209;-59
2023/07/05 02:31:58;;;;;;;5.95;2.05;;;18.40;99.90;;;;;;5074173;28;20200;-59
2023/07/05 02:34:26;;;;;;;3.70;1.98;;;18.40;99.90;;;;;;5073797;28;20282;-59
2023/07/05 02:36:55;;;;;;;2.55;2.17;;;18.40;99.90;;;;;;5074018;28;20221;-59
2023/07/05 02:39:23;;;;;;;2.60;2.35;;;18.40;99.90;;;;;;5074166;28;20205;-58
2023/07/05 02:41:51;;;;;;;2.53;2.33;;;18.40;99.90;;;;;;5074061;28;20228;-59
2023/07/05 02:44:19;;;;;;;4.75;2.17;;;18.50;99.90;;;;;;5073867;28;20208;-59
2023/07/05 02:46:46;;;;;;;4.43;2.17;;;18.40;99.90;;;;;;5074063;28;20308;-59
2023/07/05 02:49:14;;;;;;;7.50;2.55;;;18.40;99.90;;;;;;5074021;28;20736;-59
2023/07/05 02:51:42;;;;;;;2.85;2.53;;;18.40;99.90;;;;;;5073909;28;20236;-59
2023/07/05 02:54:12;;;;;;;2.60;2.30;;;18.40;99.90;;;;;;5073812;28;20278;-59
2023/07/05 02:56:40;;;;;;;4.05;2.53;;;18.40;99.90;;;;;;5073304;28;20279;-59
2023/07/05 02:59:08;;;;;;;4.72;2.70;;;18.40;99.90;;;;;;5073913;28;20431;-59
2023/07/05 03:01:36;;;;;;;2.95;2.67;;;18.40;99.90;;;;;;5040741;28;20274;-59
2023/07/05 03:04:04;;;;;;;6.65;2.75;;;18.40;99.90;;;;;;5060185;28;20202;-58
2023/07/05 03:06:32;;;;;;;3.50;2.10;;;18.40;99.90;;;;;;5064798;28;20220;-59
2023/07/05 03:09:00;;;;;;;3.33;2.30;;;18.40;99.90;;;;;;5073683;28;20228;-59
2023/07/05 03:11:29;;;;;;;2.60;2.40;;;18.40;99.90;;;;;;5073409;28;20236;-59
2023/07/05 03:13:57;;;;;;;3.00;2.47;;;18.40;99.90;;;;;;5073152;28;20236;-59
2023/07/05 03:16:25;;;;;;;3.63;2.33;;;18.40;99.90;;;;;;5073052;28;20238;-59
2023/07/05 03:18:53;;;;;;;4.03;2.83;;;18.40;99.90;;;;;;5073510;28;20200;-59
2023/07/05 03:21:21;;;;;;;2.88;2.67;;;18.30;99.90;;;;;;5073209;28;20262;-58
2023/07/05 03:23:48;;;;;;;5.00;2.88;;;18.30;99.90;;;;;;5073432;28;20244;-58
2023/07/05 03:26:17;;;;;;;5.70;3.05;;;18.30;99.90;;;;;;5072733;28;20260;-59
2023/07/05 03:28:46;;;;;;;4.82;2.80;;;18.20;99.90;;;;;;5072925;28;20232;-58
2023/07/05 03:31:15;;;;;;;4.50;3.10;;;18.20;99.90;;;;;;5073179;28;20291;-59
2023/07/05 03:33:43;;;;;;;3.35;3.05;;;18.20;99.90;;;;;;5072963;28;20282;-58
2023/07/05 03:36:12;;;;;;;4.70;2.90;;;18.10;99.90;;;;;;5072448;28;20581;-59
2023/07/05 03:38:40;;;;;;;5.13;3.22;;;18.10;99.90;;;;;;5072927;28;20232;-59
2023/07/05 03:41:16;;;;;;;4.15;3.65;;;18.10;99.90;;;;;;5072595;28;20209;-59
2023/07/05 03:43:47;;;;;;;6.13;3.58;;;18.10;99.90;;;;;;5042649;28;20200;-59
2023/07/05 03:46:15;;;;;;;5.70;3.75;;;18.10;99.90;;;;;;5072423;28;20304;-59
2023/07/05 03:48:44;;;;;;;5.00;3.58;;;18.10;99.90;;;;;;5072864;28;20555;-58
2023/07/05 03:51:12;;;;;;;5.40;3.33;;;18.10;99.90;;;;;;5072509;28;20251;-58
2023/07/05 03:53:40;;;;;;;4.82;3.10;;;18.10;99.90;;;;;;5072427;28;20262;-58
2023/07/05 03:56:08;;;;;;;3.80;3.50;;;18.10;99.90;;;;;;5072191;28;20260;-58
2023/07/05 03:58:36;;;;;;;5.90;3.63;;;18.10;99.90;;;;;;5072974;28;20205;-61
2023/07/05 04:01:07;;;;;;;3.92;3.63;;;18.10;99.90;;;;;;5073818;28;20201;-62
2023/07/05 04:03:35;;;;;;;4.85;4.30;;;18.10;99.90;;;;;;5074062;28;20201;-62
2023/07/05 04:06:03;;;;;;;6.40;3.90;;;18.10;99.90;;;;;;5072792;28;20201;-61
2023/07/05 04:08:31;;;;;;;4.53;3.20;;;18.10;99.90;;;;;;5073513;28;20548;-62
2023/07/05 04:10:59;;;;;;;4.40;3.47;;;18.00;99.90;;;;;;5073730;28;20244;-62
2023/07/05 04:13:27;;;;;;;4.07;3.75;;;18.00;99.90;;;;;;5072868;28;20239;-62
2023/07/05 04:15:59;;;;;;;5.35;4.45;;;18.10;99.90;;;;;;5058460;28;20712;-62
2023/07/05 04:18:29;;;;;;;4.78;3.40;;;18.10;99.90;;;;;;5052979;28;20193;-61
2023/07/05 04:20:57;;;;;;;7.47;3.42;;;18.10;99.90;;;;;;5050199;28;20225;-61
2023/07/05 04:23:25;;;;;;;5.43;3.65;;;18.10;99.90;;;;;;5057704;28;20643;-60
2023/07/05 04:25:59;;;;;;;4.13;3.55;;;18.10;99.90;;;;;;5054019;28;20244;-60
2023/07/05 04:28:27;;;;;;;5.40;2.90;;;18.10;99.90;;;;;;5061096;28;20244;-62
2023/07/05 04:30:55;;;;;;;3.25;2.50;;;18.10;99.90;;;;;;5066717;28;20240;-61
2023/07/05 04:33:23;;;;;;;4.57;2.97;;;18.10;99.90;;;;;;5072352;28;20273;-61
2023/07/05 04:35:55;;;;;;;3.35;2.95;;;18.20;99.90;;;;;;5071706;28;20287;-61
2023/07/05 04:38:23;;;;;;;3.72;2.70;;;18.20;99.90;;;;;;5074002;28;20197;-62
2023/07/05 04:40:51;;;;;;;2.70;2.50;;;18.20;99.90;;;;;;5072675;28;20224;-62
2023/07/05 04:43:19;;;;;;;4.15;2.55;;;18.30;99.90;;;;;;5071667;28;20269;-60
2023/07/05 04:45:50;;;;;;;3.88;2.25;;;18.30;99.90;;;;;;5071124;28;20853;-62
2023/07/05 04:48:18;;;;;;;6.63;2.30;;;18.30;99.90;;;;;;5071566;28;20207;-62
2023/07/05 04:50:48;;;;;;;3.17;2.10;;;18.30;99.90;;;;;;5063658;28;20288;-62
2023/07/05 04:53:17;;;;;;;6.13;1.95;;;18.30;99.90;;;;;;5056074;28;20247;-61
2023/07/05 04:55:45;;;;;;;6.63;2.50;;;18.40;99.90;;;;;;5056835;28;20622;-61
2023/07/05 04:58:14;;;;;;;3.78;1.95;;;18.40;99.90;;;;;;5066009;28;20256;-62
2023/07/05 05:00:46;;;;;;;4.25;2.10;;;18.40;99.90;;;;;;5055128;28;20202;-61
2023/07/05 05:03:14;;;;;;;3.25;1.73;;;18.40;99.90;;;;;;5066676;28;20322;-60
2023/07/05 05:05:42;;;;;;;3.42;1.58;;;18.50;99.90;;;;;;5059032;28;20205;-62
2023/07/05 05:08:10;;;;;;;4.32;2.10;;;18.50;99.90;;;;;;5060145;28;20232;-62
2023/07/05 05:10:39;;;;;;;3.13;1.98;;;18.60;99.90;;;;;;5071444;28;20626;-60
2023/07/05 05:13:07;;;;;;;5.78;1.92;;;18.60;99.90;;;;;;5071876;28;20287;-62
2023/07/05 05:15:36;;;;;;;1.80;1.70;;;18.60;99.90;;;;;;5063735;28;20205;-62
2023/07/05 05:18:04;;;;;;;15.70;2.30;;;18.60;99.90;;;;;;5071525;28;20259;-62
2023/07/05 05:20:32;;;;;;;2.95;2.05;;;18.60;99.90;;;;;;5063239;28;20229;-61
2023/07/05 05:23:00;;;;;;;3.15;1.40;;;18.60;99.90;;;;;;5053609;28;20477;-61
2023/07/05 05:25:28;;;;;;;2.65;1.77;;;18.60;99.90;;;;;;5058326;28;20308;-62
2023/07/05 05:27:57;;;;;;;4.03;1.75;;;18.60;99.90;;;;;;5050606;28;20312;-62
2023/07/05 05:30:25;;;;;;;3.65;1.30;;;18.50;99.90;;;;;;5057455;28;20213;-59
2023/07/05 05:32:53;;;;;;;1.70;1.60;;;18.50;99.90;;;;;;5058589;28;20251;-59
2023/07/05 05:35:21;;;;;;;1.60;1.33;;;18.50;99.90;;;;;;5059808;28;20676;-59
2023/07/05 05:37:49;;;;;;;11.27;1.83;;;18.50;99.90;;;;;;5061477;28;20733;-60
2023/07/05 05:40:17;;;;;;;2.63;1.75;;;18.40;99.90;;;;;;5060488;28;20229;-58
2023/07/05 05:42:45;;;;;;;5.45;1.95;;;18.40;99.90;;;;;;5054435;28;20233;-59
2023/07/05 05:45:14;;;;;;;4.25;1.50;;;18.30;99.90;;;;;;5057098;28;20198;-59
2023/07/05 05:47:42;;;;;;;3.25;1.40;;;18.30;99.90;;;;;;5061521;28;20216;-58
2023/07/05 05:50:10;;;;;;;3.25;2.10;;;18.30;99.90;;;;;;5073893;28;20207;-59
2023/07/05 05:52:38;;;;;;;6.03;1.83;;;18.20;99.90;;;;;;5074586;28;20239;-60
2023/07/05 05:55:07;;;;;;;2.10;2.00;;;18.20;99.90;;;;;;5072152;28;20277;-59
2023/07/05 05:57:35;;;;;;;3.35;2.22;;;18.20;99.90;;;;;;5041692;28;20307;-59
2023/07/05 06:00:04;;;;;;;2.35;2.15;;;18.20;99.90;;;;;;5074891;28;20250;-59
2023/07/05 06:02:34;;;;;;;2.60;1.60;;;18.20;99.90;;;;;;5074561;28;20587;-59
2023/07/05 06:05:03;;;;;;;5.25;1.90;;;18.20;99.90;;;;;;5074611;28;20225;-60
2023/07/05 06:07:31;;;;;;;1.73;1.63;;;18.30;99.90;;;;;;5074319;28;20304;-59
2023/07/05 06:09:59;;;;;;;3.00;1.88;;;18.40;99.90;;;;;;5073963;28;20262;-60
2023/07/05 06:12:27;;;;;;;2.55;1.75;;;18.40;99.90;;;;;;5071229;28;20201;-60
2023/07/05 06:14:54;;;;;;;2.78;1.70;;;18.40;99.90;;;;;;5069043;28;20704;-59
2023/07/05 06:17:22;;;;;;;2.15;1.95;;;18.40;99.90;;;;;;5056469;28;20218;-59
2023/07/05 06:19:52;;;;;;;3.42;2.05;;;18.30;99.90;;;;;;5055491;28;20208;-60
2023/07/05 06:22:19;;;;;;;3.45;2.90;;;18.30;99.90;;;;;;5054565;28;20201;-60
2023/07/05 06:24:47;;;;;;;6.25;2.65;;;18.30;99.90;;;;;;5057223;28;20271;-60
2023/07/05 06:27:17;;;;;;;4.82;2.97;;;18.20;99.90;;;;;;5052846;28;20229;-60
2023/07/05 06:29:45;;;;;;;3.30;3.00;;;18.20;99.90;;;;;;5060507;28;20204;-58
2023/07/05 06:32:13;;;;;;;3.60;2.67;;;18.30;99.90;;;;;;5073644;28;20698;-59
2023/07/05 06:34:42;;;;;;;4.72;2.72;;;18.30;99.90;;;;;;5073697;28;20243;-59
2023/07/05 06:37:11;;;;;;;2.95;2.75;;;18.30;99.90;;;;;;5073300;28;20225;-59
2023/07/05 06:39:39;;;;;;;4.97;2.90;;;18.30;99.90;;;;;;5073854;28;20200;-60
2023/07/05 06:42:07;;;;;;;3.10;2.80;;;18.30;99.90;;;;;;5072415;28;20736;-59
2023/07/05 06:44:34;;;;;;;3.45;3.13;;;18.30;99.90;;;;;;5071694;28;20594;-59
2023/07/05 06:47:02;;;;;;;5.72;2.97;;;18.30;99.90;;;;;;5073735;28;20303;-60
2023/07/05 06:49:31;;;;;;;6.60;3.08;;;18.30;99.90;;;;;;5073991;28;20225;-60
2023/07/05 06:51:59;;;;;;;3.03;2.83;;;18.30;99.90;;;;;;5073495;28;20813;-59
2023/07/05 06:54:28;;;;;;;5.60;3.13;;;18.20;99.90;;;;;;5073583;28;20205;-59
2023/07/05 06:56:56;;;;;;;2.97;2.78;;;18.10;99.90;;;;;;5073150;28;20701;-60
2023/07/05 06:59:24;;;;;;;6.80;3.45;;;18.10;99.90;;;;;;5073402;28;20791;-59
2023/07/05 07:01:52;;;;;;;7.50;3.75;;;18.20;99.90;;;;;;5073599;28;20212;-60
2023/07/05 07:04:20;;;;;;;4.65;3.60;;;18.20;99.90;;;;;;5073819;28;20196;-59
2023/07/05 07:06:47;;;;;;;5.40;3.67;;;18.30;99.90;;;;;;5073064;28;20223;-59
2023/07/05 07:09:15;;;;;;;7.63;3.10;;;18.40;99.90;;;;;;5073282;28;20670;-60
2023/07/05 07:11:45;;;;;;;3.58;3.10;;;18.50;99.90;;;;;;5073108;28;20491;-60
2023/07/05 07:14:12;;;;;;;3.83;3.40;;;18.50;99.90;;;;;;5073347;28;20224;-60
2023/07/05 07:16:40;;;;;;;3.83;3.03;;;18.40;99.90;;;;;;5073017;28;20221;-60
2023/07/05 07:19:09;;;;;;;4.00;3.35;;;18.30;99.90;;;;;;5073359;28;20286;-59
2023/07/05 07:21:38;;;;;;;4.95;4.05;;;18.20;99.90;;;;;;5073054;28;20197;-58
2023/07/05 07:24:06;;;;;;;4.35;3.30;;;18.10;99.90;;;;;;5073080;28;20676;-59
2023/07/05 07:26:34;;;;;;;4.20;3.63;;;18.10;99.90;;;;;;5073019;28;20229;-59
2023/07/05 07:29:03;;;;;;;3.80;3.33;;;18.10;99.90;;;;;;5073173;28;20205;-58
2023/07/05 07:31:33;;;;;;;3.33;3.08;;;18.20;99.90;;;;;;5073242;28;20248;-57
2023/07/05 07:34:01;;;;;;;4.25;3.47;;;18.20;99.90;;;;;;5073044;28;20201;-58
2023/07/05 07:36:30;;;;;;;3.30;2.83;;;18.30;99.90;;;;;;5072335;28;20224;-58
2023/07/05 07:38:58;;;;;;;5.13;3.53;;;18.30;99.90;;;;;;5072956;28;20307;-56
2023/07/05 07:41:27;;;;;;;3.83;2.95;;;18.20;99.90;;;;;;5072818;28;20209;-58
2023/07/05 07:43:59;;;;;;;4.10;3.05;;;18.10;99.90;;;;;;5072924;28;20288;-59
2023/07/05 07:46:29;;;;;;;7.50;3.75;;;18.00;99.90;;;;;;5072293;28;20636;-58
2023/07/05 07:48:58;;;;;;;4.10;3.45;;;18.00;99.90;;;;;;5071571;28;20197;-60
2023/07/05 07:51:27;;;;;;;8.32;3.20;;;17.90;99.90;;;;;;5072621;28;20283;-57
2023/07/05 07:54:02;;;;;;;3.40;2.80;;;17.90;99.90;;;;;;5072708;28;20296;-58
2023/07/05 07:56:30;;;;;;;7.57;3.15;;;18.00;99.90;;;;;;5072229;28;20319;-57
2023/07/05 07:58:58;;;;;;;3.60;2.85;;;18.20;99.90;;;;;;5072337;28;20220;-58
2023/07/05 08:01:29;;;;;;;3.65;3.25;;;18.30;99.90;;;;;;5072146;28;20248;-58
2023/07/05 08:03:58;;;;;;;5.10;3.08;;;18.50;99.90;;;;;;5072443;28;20288;-57
2023/07/05 08:06:29;;;;;;;5.38;2.30;;;18.50;99.90;;;;;;5072097;28;20216;-59
2023/07/05 08:08:57;;;;;;;2.65;2.45;;;18.60;99.90;;;;;;5072231;28;20197;-57
2023/07/05 08:11:25;;;;;;;3.17;2.88;;;18.70;99.90;;;;;;5072264;28;20280;-58
2023/07/05 08:13:52;;;;;;;5.18;2.67;;;18.80;99.90;;;;;;5072009;28;20631;-58
2023/07/05 08:16:22;;;;;;;3.65;2.40;;;19.00;99.90;;;;;;5071907;28;20696;-57
2023/07/05 08:18:51;;;;;;;5.85;2.25;;;19.10;99.90;;;;;;5071884;28;20670;-58
2023/07/05 08:21:19;;;;;;;7.43;2.85;;;19.10;99.90;;;;;;5071347;28;20666;-57
2023/07/05 08:23:48;;;;;;;3.38;2.92;;;19.10;99.90;;;;;;5071978;28;20212;-57
2023/07/05 08:26:16;;;;;;;3.90;2.50;;;19.30;99.90;;;;;;5071654;28;20307;-58
2023/07/05 08:28:43;;;;;;;4.35;2.90;;;19.50;99.90;;;;;;5071863;28;20243;-57
2023/07/05 08:31:11;;;;;;;3.08;2.58;;;19.60;99.90;;;;;;5071963;28;20288;-58
2023/07/05 08:33:39;;;;;;;3.47;2.45;;;19.70;99.90;;;;;;5071885;28;20200;-59
2023/07/05 08:36:11;;;;;;;3.63;2.70;;;19.70;99.90;;;;;;5071717;28;20205;-58
2023/07/05 08:38:40;;;;;;;3.28;2.60;;;19.70;99.90;;;;;;5072041;28;20236;-58
2023/07/05 08:41:14;;;;;;;3.60;2.65;;;19.60;99.90;;;;;;5071483;28;20209;-58
2023/07/05 08:43:43;;;;;;;3.10;2.80;;;19.60;99.90;;;;;;5041454;28;20231;-58
2023/07/05 08:46:12;;;;;;;4.35;2.72;;;19.60;99.90;;;;;;5071192;28;20315;-58
2023/07/05 08:48:40;;;;;;;4.03;2.60;;;19.70;99.90;;;;;;5071699;28;20204;-59
2023/07/05 08:51:10;;;;;;;3.53;2.60;;;19.80;99.90;;;;;;5071460;28;20326;-58
2023/07/05 08:53:47;;;;;;;4.85;2.88;;;19.90;99.90;;;;;;5040556;28;20608;-57
2023/07/05 08:56:18;;;;;;;4.47;2.60;;;19.90;99.90;;;;;;5071173;28;20734;-58
2023/07/05 08:58:48;;;;;;;3.58;2.85;;;19.80;99.90;;;;;;5071479;28;20249;-58
2023/07/05 09:01:18;;;;;;;3.20;2.80;;;19.60;99.90;;;;;;5071568;28;20237;-58
2023/07/05 09:03:46;;;;;;;3.50;2.83;;;19.60;99.90;;;;;;5071547;28;20204;-58
2023/07/05 09:06:22;;;;;;;3.30;3.00;;;19.70;99.90;;;;;;5070864;28;20255;-58
2023/07/05 09:09:04;;;;;;;3.00;2.80;;;19.90;99.90;;;;;;5071513;28;20283;-58
2023/07/05 09:11:44;;;;;;;4.20;2.88;;;20.10;99.90;;;;;;5071551;28;20197;-58
2023/07/05 09:14:17;;;;;;;2.70;2.25;;;20.00;99.90;;;;;;5071349;28;20279;-59
2023/07/05 09:16:48;;;;;;;1.75;1.35;;;20.00;99.90;;;;;;5070965;28;20739;-58
2023/07/05 09:19:19;;;;;;;3.20;1.90;;;20.00;99.90;;;;;;5071388;28;20236;-59
2023/07/05 09:21:49;;;;;;;2.97;1.75;;;20.20;99.90;;;;;;5070925;28;20295;-58
2023/07/05 09:24:20;;;;;;;1.63;1.52;;;20.30;99.90;;;;;;5071347;28;20406;-57
2023/07/05 09:26:52;;;;;;;3.25;1.23;;;20.50;99.90;;;;;;5070598;28;20318;-59
2023/07/05 09:29:27;;;;;;;2.33;1.20;;;20.50;99.90;;;;;;5071617;28;20230;-58
2023/07/05 09:31:55;;;;;;;3.00;1.20;;;20.50;99.90;;;;;;5071239;28;20200;-58
2023/07/05 09:34:27;;;;;;;1.50;1.10;;;20.50;99.90;;;;;;5071609;28;20201;-58
2023/07/05 09:36:56;;;;;;;1.05;1.00;;;20.60;99.90;;;;;;5070984;28;20301;-58
2023/07/05 09:39:33;;;;;;;2.25;1.20;;;20.60;99.90;;;;;;5070709;28;20309;-60
2023/07/05 09:42:02;;;;;;;2.35;0.90;;;20.60;99.90;;;;;;5070942;28;20228;-58
2023/07/05 09:44:31;;;;;;;1.02;0.95;;;20.60;99.90;;;;;;5071153;28;20614;-60
2023/07/05 09:46:59;;;;;;;1.10;1.00;;;20.80;99.90;;;;;;5070875;28;20256;-58
2023/07/05 09:49:28;;;;;;;3.22;0.93;;;20.90;99.90;;;;;;5066826;28;20201;-58
2023/07/05 09:51:59;;;;;;;0.90;0.90;;;21.20;99.90;;;;;;5053977;28;20197;-58
2023/07/05 09:54:29;;;;;;;2.17;1.17;;;21.20;99.90;;;;;;5054293;28;20305;-58
2023/07/05 09:56:59;;;;;;;1.10;1.00;;;21.00;99.90;;;;;;5054148;28;20225;-58
2023/07/05 09:59:27;;;;;;;2.35;1.27;;;20.90;99.90;;;;;;5056129;28;20271;-58
2023/07/05 10:01:57;;;;;;;1.02;1.02;;;21.00;99.90;;;;;;5057704;28;20236;-59
2023/07/05 10:04:26;;;;;;;1.00;1.00;;;21.20;99.90;;;;;;5070625;28;20680;-59
2023/07/05 10:06:54;;;;;;;1.17;1.10;;;21.20;99.90;;;;;;5064770;28;20226;-58
2023/07/05 10:09:24;;;;;;;2.30;1.17;;;21.50;99.90;;;;;;5056169;28;20745;-59
2023/07/05 10:11:54;;;;;;;3.75;1.20;;;21.70;99.90;;;;;;5072499;28;20204;-59
2023/07/05 10:14:22;;;;;;;2.00;1.40;;;21.90;99.90;;;;;;5052927;28;20284;-59
2023/07/05 10:16:52;;;;;;;1.02;1.00;;;21.80;99.90;;;;;;5054903;28;20309;-59
2023/07/05 10:19:24;;;;;;;3.00;1.17;;;21.50;99.90;;;;;;5059720;28;20236;-59
2023/07/05 10:21:54;;;;;;;0.88;0.80;;;21.50;99.90;;;;;;5074511;28;20236;-59
2023/07/05 10:24:24;;;;;;;1.13;1.13;;;21.40;99.90;;;;;;5074675;28;20208;-58
2023/07/05 10:26:52;;;;;;;1.58;0.93;;;21.30;99.90;;;;;;5058876;28;20256;-60
2023/07/05 10:29:21;;;;;;;0.82;0.73;;;21.20;99.90;;;;;;5064536;28;20189;-59
2023/07/05 10:31:54;;;;;;;3.20;0.90;;;21.60;99.90;;;;;;5074478;28;20762;-59
2023/07/05 10:34:23;;;;;;;4.68;0.90;;;21.90;99.90;;;;;;5074146;28;20220;-59
2023/07/05 10:36:51;;;;;;;2.40;0.90;;;22.00;99.90;;;;;;5074091;28;20590;-59
2023/07/05 10:39:23;;;;;;;2.92;0.90;;;22.20;99.90;;;;;;5074101;28;20647;-59
2023/07/05 10:41:52;;;;;;;4.10;0.80;;;22.20;99.90;;;;;;5074015;28;20208;-59
2023/07/05 10:44:26;;;;;;;2.80;1.15;;;22.30;99.90;;;;;;5074023;28;20204;-59
2023/07/05 10:46:54;;;;;;;5.45;0.98;;;22.40;99.90;;;;;;5074055;28;20649;-58
2023/07/05 10:49:22;;;;;;;1.38;0.80;;;22.40;99.90;;;;;;5074198;28;20201;-59
2023/07/05 10:51:51;;;;;;;2.78;1.10;;;22.20;99.90;;;;;;5073874;28;20243;-59
2023/07/05 10:54:27;;;;;;;0.70;0.70;;;22.20;99.90;;;;;;5073743;28;20235;-59
2023/07/05 10:56:55;;;;;;;5.30;1.08;;;22.30;99.90;;;;;;5073498;28;20762;-59
2023/07/05 10:59:26;;;;;;;3.63;1.13;;;22.50;99.90;;;;;;5073855;28;20210;-59
2023/07/05 11:01:58;;;;;;;0.85;0.65;;;22.80;99.90;;;;;;5073830;28;20247;-59
2023/07/05 11:04:28;;;;;;;2.03;0.98;;;22.90;99.90;;;;;;5064227;28;20228;-59
2023/07/05 11:07:01;;;;;;;2.25;0.90;;;23.00;99.90;;;;;;5050454;28;20221;-60
2023/07/05 11:09:35;;;;;;;1.27;0.80;;;23.30;99.80;;;;;;5058986;28;20710;-60
2023/07/05 11:12:05;;;;;;;3.28;1.08;;;23.70;99.20;;;;;;5072367;28;20686;-59
2023/07/05 11:14:33;;;;;;;1.27;1.10;;;23.70;98.40;;;;;;5056575;28;20258;-59
2023/07/05 11:17:01;;;;;;;1.73;0.93;;;23.80;97.70;;;;;;5064276;28;20303;-59
2023/07/05 11:19:30;;;;;;;3.22;1.00;;;23.90;98.70;;;;;;5069036;28;20241;-59
2023/07/05 11:22:00;;;;;;;2.38;1.00;;;23.80;98.00;;;;;;5052036;28;20309;-59
2023/07/05 11:24:45;;;;;;;1.92;0.95;;;23.60;98.70;;;;;;5054399;28;20771;-58
2023/07/05 11:27:41;;;;;;;5.45;1.13;;;23.60;98.50;;;;;;5054070;28;20233;-58
2023/07/05 11:30:37;;;;;;;0.95;0.88;;;23.70;95.40;;;;;;5073275;28;20279;-58
2023/07/05 11:33:20;;;;;;;1.23;0.98;;;23.80;96.60;;;;;;5071390;28;20232;-59
2023/07/05 11:35:49;;;;;;;1.02;0.73;;;24.00;94.70;;;;;;5043838;28;20345;-55
2023/07/05 11:39:04;;;;;;;1.30;1.13;;;24.20;95.20;;;;;;5069346;28;20213;-54
2023/07/05 11:41:37;;;;;;;4.05;1.10;;;24.50;95.90;;;;;;5072746;28;20691;-56
2023/07/05 11:44:05;;;;;;;3.83;1.15;;;24.70;94.30;;;;;;5072618;28;20222;-55
2023/07/05 11:46:38;;;;;;;2.85;1.00;;;24.90;94.00;;;;;;5072053;28;20224;-54
2023/07/05 11:49:15;;;;;;;1.30;1.20;;;25.10;94.30;;;;;;5072931;28;20209;-55
2023/07/05 11:51:43;;;;;;;3.65;1.08;;;25.30;93.60;;;;;;5042458;28;20676;-54
2023/07/05 11:54:11;;;;;;;1.25;1.10;;;25.50;92.80;;;;;;5072589;28;20287;-56
2023/07/05 11:56:40;;;;;;;2.67;1.30;;;25.30;92.70;;;;;;5072241;28;20224;-54
2023/07/05 11:59:10;;;;;;;4.82;1.35;;;25.30;92.30;;;;;;5072437;28;20295;-56
2023/07/05 12:01:39;;;;;;;2.95;1.65;;;25.50;92.20;;;;;;5039634;28;20299;-54
2023/07/05 12:04:10;;;;;;;3.28;1.38;;;25.50;91.30;;;;;;5057450;28;20219;-55
2023/07/05 12:06:39;;;;;;;3.30;1.42;;;25.70;92.30;;;;;;5055096;28;20263;-53
2023/07/05 12:09:10;;;;;;;3.35;1.08;;;26.10;90.50;;;;;;5068887;28;20228;-55
2023/07/05 12:11:39;;;;;;;1.27;1.17;;;25.90;91.00;;;;;;5040330;28;20505;-55
2023/07/05 12:14:11;;;;;;;3.25;1.30;;;25.90;90.30;;;;;;5072562;28;20228;-54
2023/07/05 12:16:39;;;;;;;4.45;2.35;;;25.80;89.00;;;;;;5067611;28;20263;-56
2023/07/05 12:19:08;;;;;;;7.78;4.05;;;25.70;90.00;;;;;;5072183;28;20719;-57
2023/07/05 12:21:36;;;;;;;4.45;3.33;;;26.00;90.30;;;;;;5039593;28;20304;-56
2023/07/05 12:24:07;;;;;;;3.58;2.70;;;26.10;88.80;;;;;;5071760;28;20207;-54
2023/07/05 12:26:36;;;;;;;14.18;8.45;;;26.20;88.80;;;;;;5071601;28;20910;-56
2023/07/05 12:29:22;;;;;;;5.28;4.82;;;26.40;87.40;;;;;;5072192;28;20197;-54
2023/07/05 12:32:01;;;;;;;8.60;4.85;;;26.20;85.80;;;;;;5043212;28;20309;-58
2023/07/05 12:34:29;;;;;;;2.80;2.42;;;26.10;87.30;;;;;;5070536;28;20261;-58
2023/07/05 12:36:58;;;;;;;2.35;2.15;;;25.90;86.80;;;;;;5055801;28;20316;-56
2023/07/05 12:39:26;;;;;;;3.90;1.90;;;25.90;88.40;;;;;;5057076;28;20581;-54
2023/07/05 12:42:03;;;;;;;2.22;1.48;;;26.00;85.80;;;;;;5053596;28;20769;-55
2023/07/05 12:44:34;;;;;;;5.22;1.80;;;25.80;86.90;;;;;;5055241;28;20687;-54
2023/07/05 12:47:12;;;;;;;3.20;1.70;;;25.70;87.10;;;;;;5056990;28;20221;-55
2023/07/05 12:49:41;;;;;;;5.72;1.70;;;26.20;85.60;;;;;;5041181;28;20204;-54
2023/07/05 12:52:20;;;;;;;5.82;1.85;;;26.50;87.90;;;;;;5056948;28;20239;-54
2023/07/05 12:54:48;;;;;;;3.67;1.30;;;26.80;83.50;;;;;;5054539;28;20201;-57
2023/07/05 12:57:20;;;;;;;2.60;1.33;;;26.50;82.80;;;;;;5055537;28;20249;-56
2023/07/05 12:59:50;;;;;;;5.47;1.70;;;26.00;83.20;;;;;;5057387;28;20208;-55